sensor_id;sensor_type;location;lat;lon;timestamp;temperature;humidity
18126;DHT22;53956;52.442;13.284;2022-09-12T00:00:33;19.60;94.70
18126;DHT22;53956;52.442;13.284;2022-09-12T00:03:00;19.50;95.00
18126;DHT22;53956;52.442;13.284;2022-09-12T00:05:27;19.50;94.90
18126;DHT22;53956;52.442;13.284;2022-09-12T00:07:53;19.50;94.70
18126;DHT22;53956;52.442;13.284;2022-09-12T00:10:20;19.50;94.70
18126;DHT22;53956;52.442;13.284;2022-09-12T00:12:47;19.40;94.90
18126;DHT22;53956;52.442;13.284;2022-09-12T00:15:13;19.40;94.80
18126;DHT22;53956;52.442;13.284;2022-09-12T00:17:41;19.40;94.80
18126;DHT22;53956;52.442;13.284;2022-09-12T00:20:09;19.40;94.80
18126;DHT22;53956;52.442;13.284;2022-09-12T00:22:36;19.30;94.50
18126;DHT22;53956;52.442;13.284;2022-09-12T00:25:04;19.30;94.80
18126;DHT22;53956;52.442;13.284;2022-09-12T00:27:31;19.30;95.00
18126;DHT22;53956;52.442;13.284;2022-09-12T00:29:57;19.30;94.90
18126;DHT22;53956;52.442;13.284;2022-09-12T00:32:24;19.20;94.70
18126;DHT22;53956;52.442;13.284;2022-09-12T00:34:52;19.20;94.60
18126;DHT22;53956;52.442;13.284;2022-09-12T00:37:19;19.20;95.00
18126;DHT22;53956;52.442;13.284;2022-09-12T00:39:45;19.10;94.50
18126;DHT22;53956;52.442;13.284;2022-09-12T00:42:12;19.20;94.50
18126;DHT22;53956;52.442;13.284;2022-09-12T00:44:45;19.20;94.70
18126;DHT22;53956;52.442;13.284;2022-09-12T00:47:16;19.10;94.90
18126;DHT22;53956;52.442;13.284;2022-09-12T00:49:47;19.20;94.60
18126;DHT22;53956;52.442;13.284;2022-09-12T00:52:18;19.10;94.70
18126;DHT22;53956;52.442;13.284;2022-09-12T00:54:50;19.10;94.60
18126;DHT22;53956;52.442;13.284;2022-09-12T00:57:20;19.10;94.60
18126;DHT22;53956;52.442;13.284;2022-09-12T00:59:49;19.10;94.30
18126;DHT22;53956;52.442;13.284;2022-09-12T01:02:18;19.10;94.50
18126;DHT22;53956;52.442;13.284;2022-09-12T01:04:45;19.10;94.60
18126;DHT22;53956;52.442;13.284;2022-09-12T01:07:12;19.10;94.50
18126;DHT22;53956;52.442;13.284;2022-09-12T01:09:43;19.00;94.10
18126;DHT22;53956;52.442;13.284;2022-09-12T01:12:10;19.00;94.20
18126;DHT22;53956;52.442;13.284;2022-09-12T01:14:38;19.00;94.00
18126;DHT22;53956;52.442;13.284;2022-09-12T01:17:04;18.80;94.10
18126;DHT22;53956;52.442;13.284;2022-09-12T01:20:08;18.90;94.00
18126;DHT22;53956;52.442;13.284;2022-09-12T01:22:59;19.00;94.30
18126;DHT22;53956;52.442;13.284;2022-09-12T01:25:38;19.00;94.20
18126;DHT22;53956;52.442;13.284;2022-09-12T01:28:28;18.90;94.30
18126;DHT22;53956;52.442;13.284;2022-09-12T01:31:02;18.90;94.20
18126;DHT22;53956;52.442;13.284;2022-09-12T01:33:45;18.80;93.80
18126;DHT22;53956;52.442;13.284;2022-09-12T01:36:32;18.80;94.20
18126;DHT22;53956;52.442;13.284;2022-09-12T01:39:02;18.80;94.50
18126;DHT22;53956;52.442;13.284;2022-09-12T01:41:37;18.80;94.20
18126;DHT22;53956;52.442;13.284;2022-09-12T01:44:12;18.80;93.90
18126;DHT22;53956;52.442;13.284;2022-09-12T01:46:44;18.70;94.10
18126;DHT22;53956;52.442;13.284;2022-09-12T01:49:19;18.80;93.60
18126;DHT22;53956;52.442;13.284;2022-09-12T01:51:54;18.70;94.00
18126;DHT22;53956;52.442;13.284;2022-09-12T01:54:26;18.70;93.80
18126;DHT22;53956;52.442;13.284;2022-09-12T01:56:58;18.70;93.80
18126;DHT22;53956;52.442;13.284;2022-09-12T01:59:28;18.60;93.90
18126;DHT22;53956;52.442;13.284;2022-09-12T02:02:02;18.60;93.90
18126;DHT22;53956;52.442;13.284;2022-09-12T02:04:33;18.60;94.10
18126;DHT22;53956;52.442;13.284;2022-09-12T02:07:07;18.60;94.10
18126;DHT22;53956;52.442;13.284;2022-09-12T02:09:40;18.60;94.20
18126;DHT22;53956;52.442;13.284;2022-09-12T02:12:09;18.60;94.00
18126;DHT22;53956;52.442;13.284;2022-09-12T02:14:41;18.60;94.40
18126;DHT22;53956;52.442;13.284;2022-09-12T02:17:11;18.60;93.90
18126;DHT22;53956;52.442;13.284;2022-09-12T02:19:41;18.60;94.20
18126;DHT22;53956;52.442;13.284;2022-09-12T02:22:12;18.50;93.70
18126;DHT22;53956;52.442;13.284;2022-09-12T02:24:43;18.50;93.90
18126;DHT22;53956;52.442;13.284;2022-09-12T02:27:14;18.50;94.00
18126;DHT22;53956;52.442;13.284;2022-09-12T02:29:42;18.50;93.90
18126;DHT22;53956;52.442;13.284;2022-09-12T02:32:15;18.40;93.90
18126;DHT22;53956;52.442;13.284;2022-09-12T02:34:46;18.50;94.10
18126;DHT22;53956;52.442;13.284;2022-09-12T02:37:22;18.50;93.90
18126;DHT22;53956;52.442;13.284;2022-09-12T02:39:50;18.50;94.10
18126;DHT22;53956;52.442;13.284;2022-09-12T02:42:18;18.60;94.20
18126;DHT22;53956;52.442;13.284;2022-09-12T02:44:45;18.40;94.10
18126;DHT22;53956;52.442;13.284;2022-09-12T02:47:17;18.50;93.70
18126;DHT22;53956;52.442;13.284;2022-09-12T02:49:46;18.50;93.90
18126;DHT22;53956;52.442;13.284;2022-09-12T02:52:13;18.40;93.80
18126;DHT22;53956;52.442;13.284;2022-09-12T02:54:40;18.40;93.60
18126;DHT22;53956;52.442;13.284;2022-09-12T02:57:14;18.40;93.50
18126;DHT22;53956;52.442;13.284;2022-09-12T02:59:41;18.40;93.40
18126;DHT22;53956;52.442;13.284;2022-09-12T03:02:23;18.40;93.30
18126;DHT22;53956;52.442;13.284;2022-09-12T03:05:18;18.40;93.30
18126;DHT22;53956;52.442;13.284;2022-09-12T03:10:53;18.30;93.10
18126;DHT22;53956;52.442;13.284;2022-09-12T03:13:25;18.20;93.60
18126;DHT22;53956;52.442;13.284;2022-09-12T03:16:03;18.30;93.30
18126;DHT22;53956;52.442;13.284;2022-09-12T03:18:41;18.20;93.00
18126;DHT22;53956;52.442;13.284;2022-09-12T03:21:13;18.10;94.70
18126;DHT22;53956;52.442;13.284;2022-09-12T03:23:49;18.10;94.60
18126;DHT22;53956;52.442;13.284;2022-09-12T03:26:24;18.20;93.40
18126;DHT22;53956;52.442;13.284;2022-09-12T03:28:53;18.10;94.40
18126;DHT22;53956;52.442;13.284;2022-09-12T03:31:21;18.10;94.60
18126;DHT22;53956;52.442;13.284;2022-09-12T03:33:49;18.10;94.60
18126;DHT22;53956;52.442;13.284;2022-09-12T03:36:19;18.10;94.20
18126;DHT22;53956;52.442;13.284;2022-09-12T03:38:48;18.10;94.40
18126;DHT22;53956;52.442;13.284;2022-09-12T03:41:14;18.10;94.20
18126;DHT22;53956;52.442;13.284;2022-09-12T03:43:41;18.10;94.60
18126;DHT22;53956;52.442;13.284;2022-09-12T03:46:08;18.00;94.40
18126;DHT22;53956;52.442;13.284;2022-09-12T03:48:34;18.00;94.70
18126;DHT22;53956;52.442;13.284;2022-09-12T03:51:04;18.00;94.40
18126;DHT22;53956;52.442;13.284;2022-09-12T03:53:32;18.10;94.40
18126;DHT22;53956;52.442;13.284;2022-09-12T03:55:59;17.90;94.40
18126;DHT22;53956;52.442;13.284;2022-09-12T03:58:29;17.90;94.80
18126;DHT22;53956;52.442;13.284;2022-09-12T04:00:56;17.80;94.60
18126;DHT22;53956;52.442;13.284;2022-09-12T04:03:22;17.90;94.50
18126;DHT22;53956;52.442;13.284;2022-09-12T04:05:49;17.90;94.70
18126;DHT22;53956;52.442;13.284;2022-09-12T04:08:17;17.90;94.50
18126;DHT22;53956;52.442;13.284;2022-09-12T04:10:44;17.90;94.30
18126;DHT22;53956;52.442;13.284;2022-09-12T04:13:10;17.90;94.00
18126;DHT22;53956;52.442;13.284;2022-09-12T04:15:37;17.80;94.50
18126;DHT22;53956;52.442;13.284;2022-09-12T04:18:04;17.80;94.60
18126;DHT22;53956;52.442;13.284;2022-09-12T04:20:31;17.80;94.50
18126;DHT22;53956;52.442;13.284;2022-09-12T04:22:57;17.90;94.70
18126;DHT22;53956;52.442;13.284;2022-09-12T04:25:25;17.70;94.30
18126;DHT22;53956;52.442;13.284;2022-09-12T04:27:52;17.90;94.10
18126;DHT22;53956;52.442;13.284;2022-09-12T04:30:19;17.70;94.70
18126;DHT22;53956;52.442;13.284;2022-09-12T04:32:45;17.80;94.70
18126;DHT22;53956;52.442;13.284;2022-09-12T04:35:12;17.80;94.20
18126;DHT22;53956;52.442;13.284;2022-09-12T04:37:39;17.90;93.60
18126;DHT22;53956;52.442;13.284;2022-09-12T04:40:06;17.70;94.30
18126;DHT22;53956;52.442;13.284;2022-09-12T04:42:34;17.60;94.00
18126;DHT22;53956;52.442;13.284;2022-09-12T04:45:01;17.70;94.60
18126;DHT22;53956;52.442;13.284;2022-09-12T04:47:28;17.70;94.80
18126;DHT22;53956;52.442;13.284;2022-09-12T04:49:54;17.80;94.60
18126;DHT22;53956;52.442;13.284;2022-09-12T04:52:21;17.60;95.10
18126;DHT22;53956;52.442;13.284;2022-09-12T04:54:47;17.70;95.00
18126;DHT22;53956;52.442;13.284;2022-09-12T04:57:15;17.70;94.60
18126;DHT22;53956;52.442;13.284;2022-09-12T04:59:43;17.70;94.60
18126;DHT22;53956;52.442;13.284;2022-09-12T05:02:09;17.70;94.80
18126;DHT22;53956;52.442;13.284;2022-09-12T05:04:36;17.60;94.80
18126;DHT22;53956;52.442;13.284;2022-09-12T05:07:03;17.60;94.70
18126;DHT22;53956;52.442;13.284;2022-09-12T05:09:30;17.70;95.00
18126;DHT22;53956;52.442;13.284;2022-09-12T05:11:57;17.60;94.50
18126;DHT22;53956;52.442;13.284;2022-09-12T05:14:23;17.80;95.30
18126;DHT22;53956;52.442;13.284;2022-09-12T05:16:51;17.70;94.80
18126;DHT22;53956;52.442;13.284;2022-09-12T05:19:18;17.70;94.90
18126;DHT22;53956;52.442;13.284;2022-09-12T05:21:44;17.70;94.70
18126;DHT22;53956;52.442;13.284;2022-09-12T05:24:11;17.70;94.90
18126;DHT22;53956;52.442;13.284;2022-09-12T05:26:38;17.60;95.10
18126;DHT22;53956;52.442;13.284;2022-09-12T05:29:04;17.70;94.90
18126;DHT22;53956;52.442;13.284;2022-09-12T05:31:32;17.80;94.70
18126;DHT22;53956;52.442;13.284;2022-09-12T05:34:00;17.70;95.50
18126;DHT22;53956;52.442;13.284;2022-09-12T05:36:30;17.80;95.30
18126;DHT22;53956;52.442;13.284;2022-09-12T05:38:58;18.30;93.30
18126;DHT22;53956;52.442;13.284;2022-09-12T05:41:26;19.30;90.20
18126;DHT22;53956;52.442;13.284;2022-09-12T05:43:55;20.40;86.70
18126;DHT22;53956;52.442;13.284;2022-09-12T05:46:24;21.40;82.90
18126;DHT22;53956;52.442;13.284;2022-09-12T05:48:51;22.40;80.40
18126;DHT22;53956;52.442;13.284;2022-09-12T05:51:22;22.70;78.00
18126;DHT22;53956;52.442;13.284;2022-09-12T05:53:52;23.30;76.50
18126;DHT22;53956;52.442;13.284;2022-09-12T05:56:20;23.90;73.60
18126;DHT22;53956;52.442;13.284;2022-09-12T05:58:52;24.20;72.20
18126;DHT22;53956;52.442;13.284;2022-09-12T06:01:19;24.70;70.60
18126;DHT22;53956;52.442;13.284;2022-09-12T06:03:47;25.20;69.20
18126;DHT22;53956;52.442;13.284;2022-09-12T06:06:16;25.40;68.10
18126;DHT22;53956;52.442;13.284;2022-09-12T06:08:45;25.90;66.60
18126;DHT22;53956;52.442;13.284;2022-09-12T06:11:15;26.30;66.10
18126;DHT22;53956;52.442;13.284;2022-09-12T06:13:42;26.50;64.00
18126;DHT22;53956;52.442;13.284;2022-09-12T06:16:12;26.70;63.60
18126;DHT22;53956;52.442;13.284;2022-09-12T06:18:39;27.00;63.60
18126;DHT22;53956;52.442;13.284;2022-09-12T06:21:08;27.20;62.00
18126;DHT22;53956;52.442;13.284;2022-09-12T06:23:35;27.50;61.80
18126;DHT22;53956;52.442;13.284;2022-09-12T06:26:05;27.50;61.80
18126;DHT22;53956;52.442;13.284;2022-09-12T06:28:34;27.60;61.70
18126;DHT22;53956;52.442;13.284;2022-09-12T06:31:03;27.80;61.30
18126;DHT22;53956;52.442;13.284;2022-09-12T06:33:30;28.00;60.90
18126;DHT22;53956;52.442;13.284;2022-09-12T06:36:02;28.30;60.10
18126;DHT22;53956;52.442;13.284;2022-09-12T06:38:29;28.50;59.40
18126;DHT22;53956;52.442;13.284;2022-09-12T06:40:56;28.70;59.10
18126;DHT22;53956;52.442;13.284;2022-09-12T06:43:24;28.90;58.40
18126;DHT22;53956;52.442;13.284;2022-09-12T06:45:51;29.20;57.00
18126;DHT22;53956;52.442;13.284;2022-09-12T06:48:18;29.20;57.10
18126;DHT22;53956;52.442;13.284;2022-09-12T06:50:54;29.50;56.90
18126;DHT22;53956;52.442;13.284;2022-09-12T06:53:22;29.60;56.70
18126;DHT22;53956;52.442;13.284;2022-09-12T06:55:54;29.80;55.70
18126;DHT22;53956;52.442;13.284;2022-09-12T06:58:21;30.40;54.60
18126;DHT22;53956;52.442;13.284;2022-09-12T07:00:49;30.60;54.50
18126;DHT22;53956;52.442;13.284;2022-09-12T07:03:15;30.20;54.90
18126;DHT22;53956;52.442;13.284;2022-09-12T07:05:42;30.00;55.10
18126;DHT22;53956;52.442;13.284;2022-09-12T07:08:09;30.30;55.20
18126;DHT22;53956;52.442;13.284;2022-09-12T07:10:36;30.60;54.20
18126;DHT22;53956;52.442;13.284;2022-09-12T07:13:02;30.80;53.70
18126;DHT22;53956;52.442;13.284;2022-09-12T07:15:29;30.90;53.60
18126;DHT22;53956;52.442;13.284;2022-09-12T07:17:57;31.20;53.30
18126;DHT22;53956;52.442;13.284;2022-09-12T07:20:24;31.40;52.30
18126;DHT22;53956;52.442;13.284;2022-09-12T07:22:50;31.50;52.60
18126;DHT22;53956;52.442;13.284;2022-09-12T07:25:17;31.80;50.40
18126;DHT22;53956;52.442;13.284;2022-09-12T07:27:43;31.90;50.70
18126;DHT22;53956;52.442;13.284;2022-09-12T07:30:10;32.10;50.00
18126;DHT22;53956;52.442;13.284;2022-09-12T07:32:37;32.20;49.90
18126;DHT22;53956;52.442;13.284;2022-09-12T07:35:06;32.50;49.40
18126;DHT22;53956;52.442;13.284;2022-09-12T07:37:33;32.30;49.70
18126;DHT22;53956;52.442;13.284;2022-09-12T07:40:00;33.10;48.40
18126;DHT22;53956;52.442;13.284;2022-09-12T07:42:27;32.60;49.40
18126;DHT22;53956;52.442;13.284;2022-09-12T07:44:55;32.80;48.50
18126;DHT22;53956;52.442;13.284;2022-09-12T07:47:21;33.10;47.90
18126;DHT22;53956;52.442;13.284;2022-09-12T07:49:48;32.70;47.80
18126;DHT22;53956;52.442;13.284;2022-09-12T07:52:16;33.10;47.80
18126;DHT22;53956;52.442;13.284;2022-09-12T07:54:43;33.40;47.20
18126;DHT22;53956;52.442;13.284;2022-09-12T07:57:09;33.90;46.50
18126;DHT22;53956;52.442;13.284;2022-09-12T07:59:36;33.80;46.00
18126;DHT22;53956;52.442;13.284;2022-09-12T08:02:09;34.30;45.40
18126;DHT22;53956;52.442;13.284;2022-09-12T08:04:38;33.70;45.90
18126;DHT22;53956;52.442;13.284;2022-09-12T08:07:05;33.70;45.90
18126;DHT22;53956;52.442;13.284;2022-09-12T08:09:33;34.00;45.40
18126;DHT22;53956;52.442;13.284;2022-09-12T08:12:00;33.70;46.00
18126;DHT22;53956;52.442;13.284;2022-09-12T08:14:26;33.40;46.20
18126;DHT22;53956;52.442;13.284;2022-09-12T08:16:54;33.40;45.60
18126;DHT22;53956;52.442;13.284;2022-09-12T08:19:20;32.90;46.50
18126;DHT22;53956;52.442;13.284;2022-09-12T08:21:48;32.80;46.00
18126;DHT22;53956;52.442;13.284;2022-09-12T08:24:14;32.30;46.50
18126;DHT22;53956;52.442;13.284;2022-09-12T08:26:42;32.20;46.90
18126;DHT22;53956;52.442;13.284;2022-09-12T08:29:09;31.90;47.40
18126;DHT22;53956;52.442;13.284;2022-09-12T08:31:36;31.80;48.70
18126;DHT22;53956;52.442;13.284;2022-09-12T08:34:03;31.40;48.90
18126;DHT22;53956;52.442;13.284;2022-09-12T08:36:31;31.00;49.40
18126;DHT22;53956;52.442;13.284;2022-09-12T08:38:59;30.50;50.40
18126;DHT22;53956;52.442;13.284;2022-09-12T08:41:28;30.40;50.30
18126;DHT22;53956;52.442;13.284;2022-09-12T08:44:08;30.20;50.90
18126;DHT22;53956;52.442;13.284;2022-09-12T08:46:43;29.70;50.90
18126;DHT22;53956;52.442;13.284;2022-09-12T08:49:27;29.70;51.80
18126;DHT22;53956;52.442;13.284;2022-09-12T08:51:57;29.30;51.70
18126;DHT22;53956;52.442;13.284;2022-09-12T08:54:28;29.30;51.40
18126;DHT22;53956;52.442;13.284;2022-09-12T08:57:00;29.40;51.00
18126;DHT22;53956;52.442;13.284;2022-09-12T08:59:33;29.40;50.90
18126;DHT22;53956;52.442;13.284;2022-09-12T09:02:01;29.20;51.50
18126;DHT22;53956;52.442;13.284;2022-09-12T09:04:36;29.50;51.10
18126;DHT22;53956;52.442;13.284;2022-09-12T09:07:23;29.10;51.80
18126;DHT22;53956;52.442;13.284;2022-09-12T09:10:05;28.90;52.70
18126;DHT22;53956;52.442;13.284;2022-09-12T09:12:39;28.80;53.00
18126;DHT22;53956;52.442;13.284;2022-09-12T09:15:26;28.60;53.30
18126;DHT22;53956;52.442;13.284;2022-09-12T09:17:59;28.60;53.50
18126;DHT22;53956;52.442;13.284;2022-09-12T09:20:31;28.20;54.10
18126;DHT22;53956;52.442;13.284;2022-09-12T09:23:04;28.20;53.60
18126;DHT22;53956;52.442;13.284;2022-09-12T09:25:39;28.40;54.30
18126;DHT22;53956;52.442;13.284;2022-09-12T09:28:13;28.20;54.30
18126;DHT22;53956;52.442;13.284;2022-09-12T09:30:42;28.30;54.40
18126;DHT22;53956;52.442;13.284;2022-09-12T09:33:14;28.20;54.00
18126;DHT22;53956;52.442;13.284;2022-09-12T09:35:45;27.80;54.10
18126;DHT22;53956;52.442;13.284;2022-09-12T09:38:22;27.00;55.70
18126;DHT22;53956;52.442;13.284;2022-09-12T09:40:59;26.70;56.70
18126;DHT22;53956;52.442;13.284;2022-09-12T09:43:26;26.70;56.50
18126;DHT22;53956;52.442;13.284;2022-09-12T09:45:56;26.50;57.00
18126;DHT22;53956;52.442;13.284;2022-09-12T09:48:26;26.60;57.10
18126;DHT22;53956;52.442;13.284;2022-09-12T09:50:57;26.30;57.90
18126;DHT22;53956;52.442;13.284;2022-09-12T09:53:37;26.00;58.70
18126;DHT22;53956;52.442;13.284;2022-09-12T09:56:09;25.80;59.40
18126;DHT22;53956;52.442;13.284;2022-09-12T09:58:36;26.20;60.00
18126;DHT22;53956;52.442;13.284;2022-09-12T10:01:13;25.90;60.90
18126;DHT22;53956;52.442;13.284;2022-09-12T10:03:47;25.90;60.90
18126;DHT22;53956;52.442;13.284;2022-09-12T10:06:23;25.80;60.70
18126;DHT22;53956;52.442;13.284;2022-09-12T10:09:09;25.60;59.70
18126;DHT22;53956;52.442;13.284;2022-09-12T10:11:42;24.90;61.00
18126;DHT22;53956;52.442;13.284;2022-09-12T10:14:33;24.90;62.70
18126;DHT22;53956;52.442;13.284;2022-09-12T10:19:45;24.70;61.80
18126;DHT22;53956;52.442;13.284;2022-09-12T10:22:16;24.40;61.30
18126;DHT22;53956;52.442;13.284;2022-09-12T10:24:47;24.70;61.70
18126;DHT22;53956;52.442;13.284;2022-09-12T10:27:17;24.40;62.30
18126;DHT22;53956;52.442;13.284;2022-09-12T10:29:47;24.50;61.60
18126;DHT22;53956;52.442;13.284;2022-09-12T10:32:22;24.80;62.00
18126;DHT22;53956;52.442;13.284;2022-09-12T10:34:52;25.00;62.10
18126;DHT22;53956;52.442;13.284;2022-09-12T10:37:25;25.10;62.90
18126;DHT22;53956;52.442;13.284;2022-09-12T10:39:55;25.20;62.20
18126;DHT22;53956;52.442;13.284;2022-09-12T10:42:45;25.20;62.60
18126;DHT22;53956;52.442;13.284;2022-09-12T10:45:20;25.10;61.90
18126;DHT22;53956;52.442;13.284;2022-09-12T10:47:50;25.50;61.20
18126;DHT22;53956;52.442;13.284;2022-09-12T10:50:22;25.20;61.00
18126;DHT22;53956;52.442;13.284;2022-09-12T10:52:50;25.30;59.40
18126;DHT22;53956;52.442;13.284;2022-09-12T10:55:21;25.30;59.70
18126;DHT22;53956;52.442;13.284;2022-09-12T10:58:04;25.40;60.90
18126;DHT22;53956;52.442;13.284;2022-09-12T11:00:35;25.10;60.60
18126;DHT22;53956;52.442;13.284;2022-09-12T11:03:15;25.20;60.50
18126;DHT22;53956;52.442;13.284;2022-09-12T11:05:53;25.10;60.10
18126;DHT22;53956;52.442;13.284;2022-09-12T11:08:44;25.10;60.90
18126;DHT22;53956;52.442;13.284;2022-09-12T11:11:27;24.90;60.80
18126;DHT22;53956;52.442;13.284;2022-09-12T11:14:14;24.90;61.00
18126;DHT22;53956;52.442;13.284;2022-09-12T11:16:49;24.80;59.80
18126;DHT22;53956;52.442;13.284;2022-09-12T11:19:35;24.80;60.60
18126;DHT22;53956;52.442;13.284;2022-09-12T11:22:17;24.80;59.40
18126;DHT22;53956;52.442;13.284;2022-09-12T11:25:10;24.90;60.40
18126;DHT22;53956;52.442;13.284;2022-09-12T11:27:50;24.90;60.20
18126;DHT22;53956;52.442;13.284;2022-09-12T11:30:19;25.10;59.70
18126;DHT22;53956;52.442;13.284;2022-09-12T11:33:06;25.10;58.70
18126;DHT22;53956;52.442;13.284;2022-09-12T11:35:42;25.00;59.60
18126;DHT22;53956;52.442;13.284;2022-09-12T11:38:38;25.10;60.40
18126;DHT22;53956;52.442;13.284;2022-09-12T11:41:09;25.30;60.50
18126;DHT22;53956;52.442;13.284;2022-09-12T11:43:39;25.40;60.00
18126;DHT22;53956;52.442;13.284;2022-09-12T11:46:12;25.00;59.70
18126;DHT22;53956;52.442;13.284;2022-09-12T11:48:48;24.90;60.70
18126;DHT22;53956;52.442;13.284;2022-09-12T11:51:20;24.80;59.60
18126;DHT22;53956;52.442;13.284;2022-09-12T11:54:02;24.80;60.10
18126;DHT22;53956;52.442;13.284;2022-09-12T11:56:30;25.00;60.20
18126;DHT22;53956;52.442;13.284;2022-09-12T11:59:02;25.00;58.70
18126;DHT22;53956;52.442;13.284;2022-09-12T12:01:33;24.90;60.20
18126;DHT22;53956;52.442;13.284;2022-09-12T12:04:07;24.80;59.50
18126;DHT22;53956;52.442;13.284;2022-09-12T12:06:46;24.80;59.40
18126;DHT22;53956;52.442;13.284;2022-09-12T12:09:14;24.70;59.50
18126;DHT22;53956;52.442;13.284;2022-09-12T12:11:43;24.60;60.80
18126;DHT22;53956;52.442;13.284;2022-09-12T12:14:15;24.60;60.50
18126;DHT22;53956;52.442;13.284;2022-09-12T12:16:44;24.60;60.40
18126;DHT22;53956;52.442;13.284;2022-09-12T12:19:34;24.40;59.20
18126;DHT22;53956;52.442;13.284;2022-09-12T12:22:11;24.50;58.80
18126;DHT22;53956;52.442;13.284;2022-09-12T12:25:01;24.50;59.80
18126;DHT22;53956;52.442;13.284;2022-09-12T12:27:47;24.50;60.10
18126;DHT22;53956;52.442;13.284;2022-09-12T12:33:51;24.60;58.90
18126;DHT22;53956;52.442;13.284;2022-09-12T12:36:34;24.70;60.00
18126;DHT22;53956;52.442;13.284;2022-09-12T12:41:59;24.60;59.70
18126;DHT22;53956;52.442;13.284;2022-09-12T12:44:49;24.60;60.80
18126;DHT22;53956;52.442;13.284;2022-09-12T12:47:18;24.50;60.70
18126;DHT22;53956;52.442;13.284;2022-09-12T12:49:51;24.20;61.30
18126;DHT22;53956;52.442;13.284;2022-09-12T12:52:19;24.20;61.60
18126;DHT22;53956;52.442;13.284;2022-09-12T12:54:52;24.30;62.20
18126;DHT22;53956;52.442;13.284;2022-09-12T13:00:35;24.00;60.80
18126;DHT22;53956;52.442;13.284;2022-09-12T13:03:09;24.10;61.50
18126;DHT22;53956;52.442;13.284;2022-09-12T13:05:45;24.10;62.10
18126;DHT22;53956;52.442;13.284;2022-09-12T13:08:26;24.20;61.40
18126;DHT22;53956;52.442;13.284;2022-09-12T13:10:59;24.20;61.10
18126;DHT22;53956;52.442;13.284;2022-09-12T13:13:29;24.10;59.30
18126;DHT22;53956;52.442;13.284;2022-09-12T13:15:58;24.20;59.80
18126;DHT22;53956;52.442;13.284;2022-09-12T13:18:27;24.40;60.00
18126;DHT22;53956;52.442;13.284;2022-09-12T13:20:59;24.40;60.30
18126;DHT22;53956;52.442;13.284;2022-09-12T13:23:31;24.40;59.80
18126;DHT22;53956;52.442;13.284;2022-09-12T13:25:59;24.30;60.10
18126;DHT22;53956;52.442;13.284;2022-09-12T13:28:27;24.40;60.20
18126;DHT22;53956;52.442;13.284;2022-09-12T13:30:57;24.50;61.00
18126;DHT22;53956;52.442;13.284;2022-09-12T13:33:33;24.30;60.30
18126;DHT22;53956;52.442;13.284;2022-09-12T13:36:22;24.40;61.30
18126;DHT22;53956;52.442;13.284;2022-09-12T13:39:07;24.40;60.70
18126;DHT22;53956;52.442;13.284;2022-09-12T13:42:01;24.30;59.50
18126;DHT22;53956;52.442;13.284;2022-09-12T13:44:40;24.30;61.00
18126;DHT22;53956;52.442;13.284;2022-09-12T13:47:11;24.30;60.30
18126;DHT22;53956;52.442;13.284;2022-09-12T13:49:40;24.20;60.40
18126;DHT22;53956;52.442;13.284;2022-09-12T13:52:14;24.10;60.80
18126;DHT22;53956;52.442;13.284;2022-09-12T13:54:44;24.30;60.90
18126;DHT22;53956;52.442;13.284;2022-09-12T13:57:27;24.40;61.30
18126;DHT22;53956;52.442;13.284;2022-09-12T13:59:55;24.30;61.00
18126;DHT22;53956;52.442;13.284;2022-09-12T14:02:25;24.40;61.10
18126;DHT22;53956;52.442;13.284;2022-09-12T14:04:54;24.40;61.00
18126;DHT22;53956;52.442;13.284;2022-09-12T14:07:38;24.40;60.60
18126;DHT22;53956;52.442;13.284;2022-09-12T14:10:06;24.30;61.70
18126;DHT22;53956;52.442;13.284;2022-09-12T14:12:35;24.30;60.30
18126;DHT22;53956;52.442;13.284;2022-09-12T14:15:06;24.20;60.60
18126;DHT22;53956;52.442;13.284;2022-09-12T14:17:37;24.10;61.50
18126;DHT22;53956;52.442;13.284;2022-09-12T14:20:10;24.10;61.70
18126;DHT22;53956;52.442;13.284;2022-09-12T14:22:39;24.10;61.00
18126;DHT22;53956;52.442;13.284;2022-09-12T14:25:13;24.10;60.90
18126;DHT22;53956;52.442;13.284;2022-09-12T14:27:43;24.00;61.90
18126;DHT22;53956;52.442;13.284;2022-09-12T14:30:21;24.10;61.80
18126;DHT22;53956;52.442;13.284;2022-09-12T14:33:02;24.10;61.00
18126;DHT22;53956;52.442;13.284;2022-09-12T14:35:30;24.20;62.00
18126;DHT22;53956;52.442;13.284;2022-09-12T14:38:05;24.20;61.80
18126;DHT22;53956;52.442;13.284;2022-09-12T14:40:39;24.30;62.40
18126;DHT22;53956;52.442;13.284;2022-09-12T14:43:16;24.20;62.20
18126;DHT22;53956;52.442;13.284;2022-09-12T14:45:51;24.30;61.80
18126;DHT22;53956;52.442;13.284;2022-09-12T14:48:18;24.20;61.40
18126;DHT22;53956;52.442;13.284;2022-09-12T14:50:49;24.10;61.70
18126;DHT22;53956;52.442;13.284;2022-09-12T14:53:24;24.10;61.80
18126;DHT22;53956;52.442;13.284;2022-09-12T14:55:57;24.20;61.70
18126;DHT22;53956;52.442;13.284;2022-09-12T14:58:25;24.10;62.30
18126;DHT22;53956;52.442;13.284;2022-09-12T15:00:55;24.00;62.30
18126;DHT22;53956;52.442;13.284;2022-09-12T15:03:28;24.00;61.90
18126;DHT22;53956;52.442;13.284;2022-09-12T15:05:57;23.90;61.80
18126;DHT22;53956;52.442;13.284;2022-09-12T15:08:24;23.90;61.70
18126;DHT22;53956;52.442;13.284;2022-09-12T15:10:51;23.80;62.10
18126;DHT22;53956;52.442;13.284;2022-09-12T15:13:21;23.80;62.40
18126;DHT22;53956;52.442;13.284;2022-09-12T15:15:50;23.80;63.30
18126;DHT22;53956;52.442;13.284;2022-09-12T15:18:18;23.80;64.10
18126;DHT22;53956;52.442;13.284;2022-09-12T15:20:46;23.80;64.00
18126;DHT22;53956;52.442;13.284;2022-09-12T15:23:19;23.80;64.10
18126;DHT22;53956;52.442;13.284;2022-09-12T15:25:46;23.80;64.40
18126;DHT22;53956;52.442;13.284;2022-09-12T15:28:18;23.70;64.00
18126;DHT22;53956;52.442;13.284;2022-09-12T15:30:46;23.70;64.50
18126;DHT22;53956;52.442;13.284;2022-09-12T15:33:14;23.70;64.10
18126;DHT22;53956;52.442;13.284;2022-09-12T15:35:42;23.60;64.10
18126;DHT22;53956;52.442;13.284;2022-09-12T15:38:08;23.60;64.20
18126;DHT22;53956;52.442;13.284;2022-09-12T15:40:36;23.60;64.50
18126;DHT22;53956;52.442;13.284;2022-09-12T15:43:03;23.60;64.70
18126;DHT22;53956;52.442;13.284;2022-09-12T15:45:32;23.60;64.30
18126;DHT22;53956;52.442;13.284;2022-09-12T15:47:59;23.50;66.20
18126;DHT22;53956;52.442;13.284;2022-09-12T15:50:28;23.50;66.70
18126;DHT22;53956;52.442;13.284;2022-09-12T15:52:55;23.60;66.50
18126;DHT22;53956;52.442;13.284;2022-09-12T15:55:24;23.60;67.40